Aérodrome :
LOGIN :

S'inscrire | Disclaimer

   EN    FR    IT 

 










Légende :    VFR   VFR Marginal   IFR   IFR Intensif   IFR Très Intensif
Visi : 
Plafond : 
>= 8 km
>= 3000ft
5 à 8 km
1000 à 3000 ft
1500m à 5 km
500 à 1000 ft
800 à 1500m
200 à 500 ft
< 800m
< 200 ft
Symboles :   Orages  Brouillard  Fortes neiges  Fortes précipitations  Vent > 20 kt
SIGMETs :   Divers  Orages  Givrage  Turbulence  Onde Orograph.  Cendres Volcan.







- Altitude de l'aérodrome : 776 ft
- Code IATA : RMS


ETAR - Ramstein Air Base

DERNIER METAR :
  • 190156Z 08004KT 9999 CLR M05/M07 A3006 RMK AO2A SLP197 T1053 $

METARs EXPIRÉS :
  • 190056Z 08003KT 9999 FEW190 M06/M08 A3006 RMK AO2A SLP199 T1061 $
  • 182356Z 08003KT 9999 CLR M05/M06 A3008 RMK AO2A SLP204 T1055 11020 21057 55001 $

TAF TAF ETAR
Valide du 19 à 02h jusqu'au 20 à 08h UTC


190200Z 1902/2008 VRB06KT 6000 BR FEW010 QNH3002INS
BECMG 1906/1907 10009KT 9999 NSW FEW020 SCT120 QNH2998INS
BECMG 1916/1917 VRB06KT 9999 SCT020 QNH2992INS TX03/1913Z TNM07/1906Z
Pas de NOTAMs connus pour ce terrain.



MET'MAP, la Météo Aéronautique d'un coup d'oeil ! - Copyright ORBIFLY Décembre 2007 - Disclaimer

ORBIFLY MET'MAP TEAM :

Programmation & Développement : Alexandra Zaïnal
Conception & Développement : Baudouin d'Aumeries
Co-Programmation & Développement : Marc-Olivier Méhu
Soutien technique & logistique : Manuel Goepfert

Contact : metmap@orbifly.com




SOURCES & CREDITS :

   NOAA